createdAt,value
2023-03-26T00:02:06.341Z,7.45
2023-03-26T00:04:34.750Z,9.15
2023-03-26T00:07:03.141Z,8.40
2023-03-26T00:09:33.096Z,10.43
2023-03-26T00:12:01.480Z,11.50
2023-03-26T00:14:30.399Z,9.40
2023-03-26T00:16:58.677Z,10.70
2023-03-26T00:19:27.834Z,10.90
2023-03-26T00:21:57.772Z,10.80
2023-03-26T00:24:29.892Z,11.00
2023-03-26T00:26:59.765Z,11.60
2023-03-26T00:29:28.812Z,11.93
2023-03-26T00:31:57.428Z,11.85
2023-03-26T00:34:26.665Z,12.88
2023-03-26T00:36:55.058Z,12.15
2023-03-26T00:39:24.543Z,13.50
2023-03-26T00:41:54.506Z,12.02
2023-03-26T00:44:24.736Z,13.85
2023-03-26T00:46:53.379Z,13.43
2023-03-26T00:49:21.614Z,12.27
2023-03-26T00:51:49.956Z,12.52
2023-03-26T00:54:18.208Z,11.48
2023-03-26T00:56:46.770Z,11.85
2023-03-26T00:59:15.678Z,11.80
2023-03-26T01:01:45.464Z,12.57
2023-03-26T01:04:31.027Z,12.47
2023-03-26T01:07:05.075Z,12.52
2023-03-26T01:09:37.061Z,12.43
2023-03-26T01:12:10.780Z,13.13
2023-03-26T01:14:39.895Z,12.63
2023-03-26T01:17:12.487Z,13.88
2023-03-26T01:19:49.786Z,13.20
2023-03-26T01:22:21.388Z,11.93
2023-03-26T01:24:56.232Z,12.45
2023-03-26T01:27:36.297Z,12.50
2023-03-26T01:30:15.141Z,13.00
2023-03-26T01:32:55.620Z,13.38
2023-03-26T01:35:35.931Z,12.27
2023-03-26T01:38:15.078Z,12.35
2023-03-26T01:40:50.437Z,12.48
2023-03-26T01:43:28.557Z,12.73
2023-03-26T01:45:59.840Z,13.55
2023-03-26T01:48:38.294Z,12.65
2023-03-26T01:51:08.493Z,13.63
2023-03-26T01:53:43.245Z,12.10
2023-03-26T01:56:22.701Z,12.68
2023-03-26T01:59:10.362Z,13.93
2023-03-26T02:01:46.189Z,11.82
2023-03-26T02:04:24.873Z,11.85
2023-03-26T02:07:02.086Z,12.18
2023-03-26T02:09:35.836Z,13.82
2023-03-26T02:12:07.682Z,13.63
2023-03-26T02:14:37.051Z,13.80
2023-03-26T02:17:06.113Z,14.45
2023-03-26T02:19:34.566Z,12.77
2023-03-26T02:22:03.029Z,12.88
2023-03-26T02:24:33.491Z,13.20
2023-03-26T02:27:02.412Z,12.65
2023-03-26T02:29:32.317Z,13.52
2023-03-26T02:32:02.307Z,13.82
2023-03-26T02:34:30.787Z,13.23
2023-03-26T02:36:59.189Z,12.32
2023-03-26T02:39:28.397Z,12.30
2023-03-26T02:42:00.888Z,13.07
2023-03-26T02:44:32.115Z,12.77
2023-03-26T02:47:00.646Z,11.23
2023-03-26T02:49:47.952Z,12.23
2023-03-26T02:52:24.479Z,11.40
2023-03-26T02:54:54.654Z,11.75
2023-03-26T02:57:25.855Z,12.40
2023-03-26T03:00:13.298Z,13.10
2023-03-26T03:02:48.127Z,12.57
2023-03-26T03:05:32.399Z,13.15
2023-03-26T03:11:15.648Z,12.73
2023-03-26T03:13:47.135Z,11.77
2023-03-26T03:16:23.290Z,12.90
2023-03-26T03:18:57.469Z,12.00
2023-03-26T03:21:30.875Z,11.07
2023-03-26T03:23:59.952Z,12.68
2023-03-26T03:26:31.139Z,11.18
2023-03-26T03:29:05.744Z,10.65
2023-03-26T03:31:35.956Z,11.43
2023-03-26T03:34:06.863Z,11.13
2023-03-26T03:36:39.328Z,10.73
2023-03-26T03:39:16.786Z,11.38
2023-03-26T03:41:45.506Z,9.93
2023-03-26T03:44:16.769Z,11.63
2023-03-26T03:46:49.218Z,11.55
2023-03-26T03:49:17.852Z,11.45
2023-03-26T03:51:46.430Z,10.90
2023-03-26T03:54:24.270Z,11.52
2023-03-26T03:57:05.556Z,12.15
2023-03-26T03:59:51.587Z,11.23
2023-03-26T04:02:26.559Z,10.88
2023-03-26T04:04:59.932Z,11.83
2023-03-26T04:07:32.193Z,11.93
2023-03-26T04:10:09.364Z,10.77
2023-03-26T04:13:09.828Z,10.90
2023-03-26T04:16:11.560Z,10.32
2023-03-26T04:18:41.655Z,12.13
2023-03-26T04:21:16.368Z,10.60
2023-03-26T04:23:46.589Z,11.57
2023-03-26T04:26:25.568Z,10.63
2023-03-26T04:29:11.878Z,11.05
2023-03-26T04:31:40.439Z,10.13
2023-03-26T04:34:24.052Z,10.48
2023-03-26T04:37:05.206Z,10.02
2023-03-26T04:39:39.270Z,11.10
2023-03-26T04:42:28.759Z,11.45
2023-03-26T04:45:09.206Z,11.73
2023-03-26T04:47:39.127Z,11.70
2023-03-26T04:50:12.806Z,11.68
2023-03-26T04:52:43.957Z,13.27
2023-03-26T04:55:39.505Z,11.70
2023-03-26T04:58:17.012Z,11.25
2023-03-26T05:00:55.360Z,11.68
2023-03-26T05:03:23.961Z,11.68
2023-03-26T05:05:53.974Z,12.43
2023-03-26T05:08:22.532Z,12.18
2023-03-26T05:10:51.015Z,12.70
2023-03-26T05:13:29.787Z,12.45
2023-03-26T05:16:01.666Z,10.48
2023-03-26T05:18:59.426Z,11.15
2023-03-26T05:21:34.901Z,11.85
2023-03-26T05:24:03.764Z,11.77
2023-03-26T05:26:32.380Z,12.30
2023-03-26T05:29:02.944Z,10.05
2023-03-26T05:31:35.453Z,12.50
2023-03-26T05:34:06.765Z,11.70
2023-03-26T05:36:36.784Z,12.00
2023-03-26T05:39:14.250Z,11.25
2023-03-26T05:42:17.824Z,12.18
2023-03-26T05:45:22.284Z,11.13
2023-03-26T05:47:51.281Z,11.40
2023-03-26T05:50:20.505Z,12.00
2023-03-26T05:52:51.809Z,12.32
2023-03-26T05:55:57.799Z,11.95
2023-03-26T05:58:52.720Z,11.35
2023-03-26T06:01:56.189Z,10.73
2023-03-26T06:04:45.825Z,11.65
2023-03-26T06:07:33.881Z,10.52
2023-03-26T06:10:18.739Z,12.02
2023-03-26T06:12:49.634Z,13.23
2023-03-26T06:15:18.540Z,11.57
2023-03-26T06:17:59.049Z,12.88
2023-03-26T06:20:37.558Z,12.43
2023-03-26T06:23:12.389Z,14.43
2023-03-26T06:25:56.174Z,13.93
2023-03-26T06:28:59.780Z,13.23
2023-03-26T06:31:47.955Z,13.50
2023-03-26T06:34:27.050Z,13.23
2023-03-26T06:36:55.576Z,14.35
2023-03-26T06:39:24.280Z,14.23
2023-03-26T06:42:10.467Z,14.98
2023-03-26T06:45:09.674Z,15.13
2023-03-26T06:48:01.496Z,15.45
2023-03-26T06:51:09.941Z,15.07
2023-03-26T06:54:23.999Z,15.20
2023-03-26T06:56:58.970Z,16.05
2023-03-26T06:59:47.603Z,15.77
2023-03-26T07:02:34.476Z,16.30
2023-03-26T07:05:21.702Z,16.20
2023-03-26T07:08:30.819Z,16.60
2023-03-26T07:11:34.630Z,16.23
2023-03-26T07:14:21.613Z,16.20
2023-03-26T07:17:14.128Z,17.95
2023-03-26T07:19:54.641Z,15.63
2023-03-26T07:22:27.784Z,15.75
2023-03-26T07:25:10.614Z,17.60
2023-03-26T07:28:15.399Z,17.15
2023-03-26T07:31:08.553Z,17.08
2023-03-26T07:33:54.856Z,16.52
2023-03-26T07:36:49.943Z,15.02
2023-03-26T07:39:47.697Z,13.60
2023-03-26T07:42:50.499Z,12.07
2023-03-26T07:45:41.585Z,11.85
2023-03-26T07:48:20.248Z,12.68
2023-03-26T07:51:20.061Z,12.98
2023-03-26T07:54:11.830Z,12.75
2023-03-26T07:56:46.906Z,13.85
2023-03-26T07:59:41.718Z,12.65
2023-03-26T08:03:03.423Z,13.57
2023-03-26T08:06:06.711Z,14.68
2023-03-26T08:08:53.592Z,15.65
2023-03-26T08:11:54.419Z,14.38
2023-03-26T08:14:35.442Z,14.73
2023-03-26T08:17:11.682Z,13.55
2023-03-26T08:19:52.491Z,14.43
2023-03-26T08:22:27.352Z,13.00
2023-03-26T08:25:20.027Z,14.30
2023-03-26T08:28:10.647Z,14.27
2023-03-26T08:30:39.376Z,13.57
2023-03-26T08:33:17.836Z,14.05
2023-03-26T08:35:46.618Z,15.07
2023-03-26T08:38:19.160Z,14.77
2023-03-26T08:41:57.824Z,15.30
2023-03-26T08:45:23.664Z,13.85
2023-03-26T08:48:29.989Z,13.48
2023-03-26T08:51:27.846Z,12.98
2023-03-26T08:54:45.917Z,12.93
2023-03-26T08:57:39.476Z,12.25
2023-03-26T09:00:44.122Z,12.25
2023-03-26T09:03:31.474Z,12.77
2023-03-26T09:06:37.427Z,12.07
2023-03-26T09:09:45.074Z,11.05
2023-03-26T09:13:04.764Z,7.88
2023-03-26T09:16:27.837Z,6.85
2023-03-26T09:19:31.802Z,7.43
2023-03-26T09:22:46.023Z,7.72
2023-03-26T09:25:54.699Z,8.30
2023-03-26T09:29:04.139Z,9.18
2023-03-26T09:32:11.886Z,8.98
2023-03-26T09:35:04.548Z,9.05
2023-03-26T09:37:56.633Z,9.07
2023-03-26T09:40:38.715Z,9.07
2023-03-26T09:43:44.861Z,9.13
2023-03-26T09:46:30.492Z,8.05
2023-03-26T09:49:28.767Z,8.05
2023-03-26T09:52:42.544Z,7.80
2023-03-26T09:55:40.389Z,6.93
2023-03-26T09:58:58.005Z,9.77
2023-03-26T10:01:37.641Z,15.90
2023-03-26T10:04:40.300Z,16.20
2023-03-26T10:07:23.314Z,17.67
2023-03-26T10:09:58.526Z,18.67
2023-03-26T10:12:36.600Z,19.90
2023-03-26T10:15:19.892Z,22.15
2023-03-26T10:18:27.104Z,19.85
2023-03-26T10:21:03.637Z,19.98
2023-03-26T10:23:57.959Z,20.30
2023-03-26T10:27:08.946Z,20.65
2023-03-26T10:30:30.428Z,18.45
2023-03-26T10:33:12.729Z,18.90
2023-03-26T10:36:01.779Z,17.55
2023-03-26T10:38:53.468Z,17.40
2023-03-26T10:41:31.692Z,16.48
2023-03-26T10:44:49.869Z,14.27
2023-03-26T10:47:45.344Z,12.00
2023-03-26T10:50:36.871Z,9.48
2023-03-26T10:53:14.896Z,9.10
2023-03-26T10:55:46.852Z,9.73
2023-03-26T10:58:24.215Z,8.82
2023-03-26T11:00:58.948Z,8.68
2023-03-26T11:03:55.213Z,8.95
2023-03-26T11:06:33.671Z,8.80
2023-03-26T11:09:24.552Z,9.32
2023-03-26T11:12:00.536Z,8.82
2023-03-26T11:14:36.213Z,8.57
2023-03-26T11:17:40.780Z,8.63
2023-03-26T11:20:13.171Z,8.35
2023-03-26T11:23:00.391Z,8.73
2023-03-26T11:25:44.962Z,8.05
2023-03-26T11:28:35.046Z,8.13
2023-03-26T11:31:11.871Z,8.40
2023-03-26T11:33:46.681Z,8.85
2023-03-26T11:36:20.950Z,9.18
2023-03-26T11:38:52.272Z,8.55
2023-03-26T11:41:30.826Z,8.88
2023-03-26T11:44:17.890Z,9.32
2023-03-26T11:46:48.665Z,9.38
2023-03-26T11:49:21.611Z,8.73
2023-03-26T11:51:50.325Z,9.35
2023-03-26T11:54:21.073Z,9.73
2023-03-26T11:57:05.293Z,9.02
2023-03-26T11:59:53.232Z,8.15
2023-03-26T12:02:32.540Z,8.70
2023-03-26T12:05:18.113Z,7.10
2023-03-26T12:07:55.894Z,7.68
2023-03-26T12:10:34.840Z,7.32
2023-03-26T12:13:29.880Z,7.70
2023-03-26T12:16:00.102Z,8.30
2023-03-26T12:18:29.741Z,8.35
2023-03-26T12:21:08.967Z,8.45
2023-03-26T12:23:44.684Z,8.57
2023-03-26T12:26:18.549Z,8.38
2023-03-26T12:28:52.639Z,7.93
2023-03-26T12:31:21.194Z,7.82
2023-03-26T12:34:08.057Z,8.93
2023-03-26T12:36:36.685Z,7.90
2023-03-26T12:40:07.415Z,7.35
2023-03-26T12:44:48.006Z,7.78
2023-03-26T12:45:24.653Z,8.07
2023-03-26T12:48:03.463Z,6.80
2023-03-26T12:50:51.183Z,8.13
2023-03-26T12:53:49.323Z,7.43
2023-03-26T12:56:22.243Z,7.18
2023-03-26T12:59:11.654Z,7.18
2023-03-26T13:01:53.709Z,6.95
2023-03-26T13:05:05.773Z,6.70
2023-03-26T13:07:54.762Z,6.78
2023-03-26T13:10:46.377Z,6.72
2023-03-26T13:13:57.476Z,7.32
2023-03-26T13:16:33.372Z,7.13
2023-03-26T13:19:10.507Z,6.53
2023-03-26T13:21:53.730Z,6.40
2023-03-26T13:24:34.785Z,7.10
2023-03-26T13:27:21.725Z,6.95
2023-03-26T13:29:58.025Z,6.25
2023-03-26T13:32:38.740Z,5.95
2023-03-26T13:37:54.631Z,6.35
2023-03-26T13:40:34.070Z,6.85
2023-03-26T13:43:30.937Z,6.18
2023-03-26T13:46:10.563Z,7.15
2023-03-26T13:48:44.747Z,6.60
2023-03-26T13:51:19.496Z,6.32
2023-03-26T13:53:56.089Z,6.13
2023-03-26T13:56:30.791Z,6.72
2023-03-26T13:59:03.330Z,6.97
2023-03-26T14:01:36.248Z,6.28
2023-03-26T14:04:17.891Z,6.03
2023-03-26T14:06:57.199Z,5.47
2023-03-26T14:09:32.912Z,6.03
2023-03-26T14:12:23.882Z,5.95
2023-03-26T14:14:56.904Z,6.55
2023-03-26T14:17:30.014Z,7.03
2023-03-26T14:20:44.028Z,16.30
2023-03-26T14:23:55.463Z,5.32
2023-03-26T14:26:47.333Z,6.25
2023-03-26T14:29:31.427Z,5.43
2023-03-26T14:32:30.684Z,5.68
2023-03-26T14:35:26.031Z,5.53
2023-03-26T14:38:33.621Z,5.53
2023-03-26T14:41:23.247Z,5.70
2023-03-26T14:44:48.799Z,5.95
2023-03-26T14:47:20.533Z,5.63
2023-03-26T14:50:46.674Z,6.10
2023-03-26T14:53:29.511Z,5.85
2023-03-26T14:56:55.162Z,5.95
2023-03-26T15:00:26.686Z,6.15
2023-03-26T15:03:54.941Z,6.20
2023-03-26T15:07:32.268Z,5.47
2023-03-26T15:10:23.889Z,6.20
2023-03-26T15:13:11.116Z,5.95
2023-03-26T15:16:19.474Z,6.13
2023-03-26T15:19:53.059Z,5.72
2023-03-26T15:23:05.780Z,5.90
2023-03-26T15:26:43.343Z,5.38
2023-03-26T15:30:01.731Z,5.85
2023-03-26T15:33:43.798Z,5.70
2023-03-26T15:37:06.109Z,6.28
2023-03-26T15:39:59.830Z,5.95
2023-03-26T15:42:41.780Z,5.47
2023-03-26T15:45:36.935Z,6.38
2023-03-26T15:48:31.959Z,6.00
2023-03-26T15:51:15.952Z,5.50
2023-03-26T15:53:54.033Z,6.82
2023-03-26T15:56:35.653Z,6.32
2023-03-26T15:59:19.808Z,6.00
2023-03-26T16:02:02.928Z,6.10
2023-03-26T16:04:50.338Z,6.47
2023-03-26T16:07:50.616Z,6.43
2023-03-26T16:10:29.137Z,6.35
2023-03-26T16:13:31.933Z,5.82
2023-03-26T16:16:24.203Z,5.57
2023-03-26T16:18:59.543Z,5.53
2023-03-26T16:21:57.664Z,5.53
2023-03-26T16:24:31.983Z,5.70
2023-03-26T16:27:32.424Z,5.97
2023-03-26T16:30:32.791Z,7.07
2023-03-26T16:33:15.646Z,5.35
2023-03-26T16:36:07.439Z,5.78
2023-03-26T16:38:54.289Z,6.00
2023-03-26T16:41:27.659Z,5.13
2023-03-26T16:44:13.767Z,6.18
2023-03-26T16:46:57.768Z,5.40
2023-03-26T16:49:46.552Z,6.80
2023-03-26T16:52:45.691Z,5.22
2023-03-26T16:55:24.168Z,6.10
2023-03-26T16:57:58.972Z,5.22
2023-03-26T17:00:49.099Z,5.38
2023-03-26T17:03:29.132Z,5.35
2023-03-26T17:06:29.916Z,5.07
2023-03-26T17:09:10.649Z,5.50
2023-03-26T17:11:56.491Z,4.65
2023-03-26T17:14:42.342Z,4.72
2023-03-26T17:17:32.651Z,5.95
2023-03-26T17:20:12.684Z,5.57
2023-03-26T17:22:47.465Z,5.70
2023-03-26T17:25:41.433Z,4.60
2023-03-26T17:28:35.321Z,4.70
2023-03-26T17:31:06.711Z,5.40
2023-03-26T17:33:38.659Z,5.40
2023-03-26T17:36:30.966Z,5.22
2023-03-26T17:40:12.174Z,5.45
2023-03-26T17:43:03.881Z,5.03
2023-03-26T17:45:37.326Z,4.82
2023-03-26T17:48:15.485Z,5.32
2023-03-26T17:50:53.157Z,5.18
2023-03-26T17:53:28.098Z,4.93
2023-03-26T17:56:03.641Z,5.63
2023-03-26T17:58:37.537Z,5.90
2023-03-26T18:01:18.611Z,5.88
2023-03-26T18:03:50.546Z,5.88
2023-03-26T18:06:35.907Z,6.03
2023-03-26T18:09:18.755Z,6.03
2023-03-26T18:12:33.040Z,5.28
2023-03-26T18:15:31.538Z,4.78
2023-03-26T18:18:11.169Z,5.22
2023-03-26T18:20:42.623Z,4.60
2023-03-26T18:23:18.350Z,5.22
2023-03-26T18:25:58.201Z,5.28
2023-03-26T18:28:42.482Z,5.40
2023-03-26T18:31:19.556Z,5.72
2023-03-26T18:33:50.401Z,6.15
2023-03-26T18:36:19.651Z,5.55
2023-03-26T18:38:48.947Z,5.82
2023-03-26T18:41:32.210Z,5.22
2023-03-26T18:44:06.446Z,5.10
2023-03-26T18:46:35.865Z,5.38
2023-03-26T18:49:04.918Z,5.68
2023-03-26T18:51:43.268Z,5.70
2023-03-26T18:54:21.447Z,5.60
2023-03-26T18:56:52.163Z,5.35
2023-03-26T18:59:29.090Z,7.63
2023-03-26T19:01:59.122Z,7.97
2023-03-26T19:04:31.247Z,5.97
2023-03-26T19:07:00.444Z,5.75
2023-03-26T19:09:32.453Z,5.05
2023-03-26T19:12:07.821Z,5.75
2023-03-26T19:14:55.006Z,5.68
2023-03-26T19:17:25.442Z,5.45
2023-03-26T19:19:55.626Z,5.22
2023-03-26T19:22:26.824Z,5.07
2023-03-26T19:24:59.590Z,4.88
2023-03-26T19:27:28.721Z,4.80
2023-03-26T19:29:59.178Z,5.47
2023-03-26T19:32:34.525Z,5.47
2023-03-26T19:35:04.450Z,5.53
2023-03-26T19:37:33.531Z,5.47
2023-03-26T19:40:14.182Z,5.88
2023-03-26T19:45:20.652Z,5.20
2023-03-26T19:48:00.501Z,4.68
2023-03-26T19:50:42.125Z,5.70
2023-03-26T19:53:25.494Z,5.15
2023-03-26T19:55:56.526Z,5.10
2023-03-26T19:58:28.471Z,5.07
2023-03-26T20:00:58.855Z,5.38
2023-03-26T20:05:58.827Z,4.88
2023-03-26T20:08:27.948Z,4.68
2023-03-26T20:10:59.004Z,4.68
2023-03-26T20:13:27.945Z,5.00
2023-03-26T20:18:52.864Z,5.32
2023-03-26T20:21:21.420Z,5.43
2023-03-26T20:23:53.454Z,5.28
2023-03-26T20:26:24.119Z,5.75
2023-03-26T20:31:26.664Z,5.13
2023-03-26T20:33:56.458Z,5.13
2023-03-26T20:36:33.881Z,5.00
2023-03-26T20:39:06.021Z,5.50
2023-03-26T20:41:35.359Z,5.10
2023-03-26T20:44:05.793Z,5.63
2023-03-26T20:46:35.608Z,5.35
2023-03-26T20:49:04.033Z,5.72
2023-03-26T20:51:32.341Z,5.40
2023-03-26T20:54:00.826Z,5.63
2023-03-26T20:56:29.263Z,5.88
2023-03-26T21:01:30.340Z,5.00
2023-03-26T21:04:00.708Z,5.70
2023-03-26T21:06:29.395Z,5.78
2023-03-26T21:08:58.726Z,5.50
2023-03-26T21:11:40.928Z,5.90
2023-03-26T21:14:17.043Z,5.43
2023-03-26T21:16:46.121Z,5.93
2023-03-26T21:19:16.884Z,5.47
2023-03-26T21:24:39.184Z,4.93
2023-03-26T21:27:16.034Z,6.35
2023-03-26T21:29:45.204Z,6.25
2023-03-26T21:32:14.770Z,5.78
2023-03-26T21:34:55.735Z,6.20
2023-03-26T21:37:27.740Z,5.88
2023-03-26T21:39:56.745Z,5.38
2023-03-26T21:42:26.819Z,5.35
2023-03-26T21:44:56.161Z,5.32
2023-03-26T21:47:25.437Z,4.95
2023-03-26T21:49:56.063Z,5.13
2023-03-26T21:52:25.262Z,4.97
2023-03-26T21:54:54.649Z,5.25
2023-03-26T21:57:39.868Z,4.55
2023-03-26T22:00:15.362Z,4.50
2023-03-26T22:02:58.923Z,4.55
2023-03-26T22:05:39.059Z,4.45
2023-03-26T22:08:09.159Z,4.93
2023-03-26T22:10:37.692Z,5.05
2023-03-26T22:13:05.999Z,4.35
2023-03-26T22:15:35.437Z,4.85
2023-03-26T22:18:05.151Z,5.03
2023-03-26T22:20:34.822Z,4.93
2023-03-26T22:23:03.295Z,4.68
2023-03-26T22:25:31.632Z,5.28
2023-03-26T22:27:59.946Z,4.82
2023-03-26T22:30:28.308Z,4.70
2023-03-26T22:32:56.881Z,4.45
2023-03-26T22:35:26.314Z,4.05
2023-03-26T22:38:00.836Z,4.65
2023-03-26T22:40:29.704Z,4.55
2023-03-26T22:42:58.278Z,5.72
2023-03-26T22:45:27.929Z,4.72
2023-03-26T22:48:03.221Z,4.45
2023-03-26T22:50:33.080Z,5.25
2023-03-26T22:53:02.842Z,4.82
2023-03-26T22:55:31.112Z,5.73
2023-03-26T22:57:59.426Z,5.18
2023-03-26T23:00:27.874Z,4.93
2023-03-26T23:03:00.172Z,5.55
2023-03-26T23:05:29.344Z,5.50
2023-03-26T23:07:58.298Z,4.72
2023-03-26T23:10:30.123Z,5.22
2023-03-26T23:12:58.624Z,5.25
2023-03-26T23:15:27.032Z,5.00
2023-03-26T23:17:55.701Z,4.93
2023-03-26T23:20:24.144Z,4.32
2023-03-26T23:22:52.546Z,4.80
2023-03-26T23:25:21.248Z,4.93
2023-03-26T23:27:50.993Z,5.22
2023-03-26T23:30:19.575Z,5.47
2023-03-26T23:32:48.013Z,4.85
2023-03-26T23:35:16.759Z,4.57
2023-03-26T23:37:45.097Z,4.50
2023-03-26T23:40:14.359Z,4.90
2023-03-26T23:42:42.696Z,5.03
2023-03-26T23:45:13.386Z,4.47
2023-03-26T23:50:12.864Z,5.13
2023-03-26T23:52:41.365Z,4.95
2023-03-26T23:55:10.611Z,5.50
2023-03-26T23:57:38.982Z,5.00
